Time;durP1;ratioP1;P1;durP2;ratioP2;P2;SDS_P1;SDS_P2;PMS_P1;PMS_P2;Temp;Humidity;BMP_temperature;BMP_pressure;BME280_temperature;BME280_humidity;BME280_pressure;Samples;Min_cycle;Max_cycle;Signal;HPM_P1;HPM_P2
2022/02/17 00:02:20;;;;;;;2.03;1.30;;;-4.00;99.90;;;;;;5032402;28;20025;-66
2022/02/17 00:04:45;;;;;;;2.28;1.30;;;-4.00;99.90;;;;;;5032545;28;20049;-66
2022/02/17 00:07:11;;;;;;;1.33;1.23;;;-4.00;99.90;;;;;;5032227;28;20472;-66
2022/02/17 00:09:37;;;;;;;1.60;1.50;;;-4.00;99.90;;;;;;5032472;28;20096;-66
2022/02/17 00:12:03;;;;;;;2.42;1.30;;;-4.00;99.90;;;;;;5032315;28;20435;-66
2022/02/17 00:14:29;;;;;;;1.63;1.30;;;-4.00;99.90;;;;;;5032320;28;20036;-66
2022/02/17 00:16:54;;;;;;;2.55;1.30;;;-4.00;99.90;;;;;;5032147;28;20404;-66
2022/02/17 00:19:20;;;;;;;2.88;1.50;;;-4.00;99.90;;;;;;5032028;28;20033;-66
2022/02/17 00:21:50;;;;;;;1.50;1.40;;;-4.00;99.90;;;;;;5032068;28;20029;-66
2022/02/17 00:24:19;;;;;;;1.97;1.60;;;-3.90;99.90;;;;;;5032054;28;20078;-66
2022/02/17 00:26:45;;;;;;;2.05;1.65;;;-4.00;99.90;;;;;;5031981;28;20025;-66
2022/02/17 00:29:12;;;;;;;2.15;1.42;;;-4.00;99.90;;;;;;5032005;28;20160;-66
2022/02/17 00:31:38;;;;;;;3.20;1.50;;;-3.90;99.90;;;;;;5032082;28;20091;-67
2022/02/17 00:34:04;;;;;;;2.08;1.40;;;-3.90;99.90;;;;;;5031825;28;20034;-66
2022/02/17 00:36:31;;;;;;;1.98;1.58;;;-4.00;99.90;;;;;;5031720;28;20029;-66
2022/02/17 00:38:57;;;;;;;4.40;1.50;;;-3.90;99.90;;;;;;5031832;28;20050;-66
2022/02/17 00:41:24;;;;;;;2.30;1.40;;;-3.90;99.90;;;;;;5031698;28;20104;-67
2022/02/17 00:43:50;;;;;;;2.17;1.48;;;-3.90;99.90;;;;;;5031877;28;20049;-67
2022/02/17 00:46:16;;;;;;;5.60;1.63;;;-3.90;99.90;;;;;;5031981;28;20041;-66
2022/02/17 00:48:42;;;;;;;2.33;1.58;;;-3.90;99.90;;;;;;5031805;28;20377;-66
2022/02/17 00:51:07;;;;;;;2.13;1.55;;;-3.90;99.90;;;;;;5014226;28;20034;-67
2022/02/17 00:53:33;;;;;;;2.30;1.40;;;-3.90;99.90;;;;;;5031570;28;20034;-66
2022/02/17 00:55:59;;;;;;;2.20;1.45;;;-3.90;99.90;;;;;;5031689;28;20031;-66
2022/02/17 00:58:25;;;;;;;3.28;1.38;;;-3.90;99.90;;;;;;5031535;28;20021;-66
2022/02/17 01:00:51;;;;;;;5.57;1.73;;;-3.90;99.90;;;;;;5034067;28;20025;-66
2022/02/17 01:03:19;;;;;;;1.50;1.40;;;-3.90;99.90;;;;;;5035714;28;20057;-67
2022/02/17 01:05:45;;;;;;;5.63;1.50;;;-3.80;99.90;;;;;;5018055;28;20022;-67
2022/02/17 01:08:10;;;;;;;5.70;1.60;;;-3.80;99.90;;;;;;5035613;28;20029;-68
2022/02/17 01:10:36;;;;;;;3.50;1.42;;;-3.80;99.90;;;;;;5036120;28;20087;-67
2022/02/17 01:13:04;;;;;;;1.55;1.30;;;-3.80;99.90;;;;;;5035650;28;20029;-67
2022/02/17 01:15:31;;;;;;;3.45;1.60;;;-3.80;99.90;;;;;;5035543;28;20028;-67
2022/02/17 01:17:57;;;;;;;1.95;1.50;;;-3.80;99.90;;;;;;5017807;28;20029;-67
2022/02/17 01:20:22;;;;;;;2.45;1.63;;;-3.80;99.90;;;;;;5035433;28;20034;-67
2022/02/17 01:22:49;;;;;;;2.28;1.35;;;-3.80;99.90;;;;;;5035716;28;20034;-67
2022/02/17 01:25:15;;;;;;;1.95;1.02;;;-3.80;99.90;;;;;;5035168;28;20028;-67
2022/02/17 01:27:42;;;;;;;1.20;1.10;;;-3.80;99.90;;;;;;5035272;28;20053;-67
2022/02/17 01:30:09;;;;;;;6.20;1.45;;;-3.80;99.90;;;;;;5035185;28;20021;-67
2022/02/17 01:32:35;;;;;;;1.85;1.33;;;-3.80;99.90;;;;;;5035137;28;20037;-67
2022/02/17 01:35:01;;;;;;;3.70;1.50;;;-3.80;99.90;;;;;;5035149;28;20022;-67
2022/02/17 01:37:27;;;;;;;1.48;1.20;;;-3.80;99.90;;;;;;5034858;28;20053;-67
2022/02/17 01:39:53;;;;;;;1.92;1.40;;;-3.80;99.90;;;;;;5017434;28;20653;-67
2022/02/17 01:42:19;;;;;;;2.92;1.13;;;-3.70;99.90;;;;;;5035136;28;20018;-67
2022/02/17 01:44:46;;;;;;;3.05;1.95;;;-3.70;99.90;;;;;;5035046;28;20473;-67
2022/02/17 01:47:14;;;;;;;2.63;1.50;;;-3.70;99.90;;;;;;5034794;28;20483;-67
2022/02/17 01:49:41;;;;;;;1.50;1.35;;;-3.70;99.90;;;;;;5034937;28;20470;-66
2022/02/17 01:52:09;;;;;;;1.92;1.67;;;-3.70;99.90;;;;;;5034847;28;20048;-66
2022/02/17 01:54:36;;;;;;;1.42;1.15;;;-3.70;99.90;;;;;;5034873;28;20068;-66
2022/02/17 01:57:08;;;;;;;2.15;1.10;;;-3.70;99.90;;;;;;5034764;28;20109;-66
2022/02/17 01:59:34;;;;;;;2.50;1.60;;;-3.70;99.90;;;;;;5022201;28;20086;-66
2022/02/17 02:02:00;;;;;;;2.50;1.50;;;-3.70;99.90;;;;;;5015185;28;20115;-66
2022/02/17 02:04:26;;;;;;;3.72;1.65;;;-3.60;99.90;;;;;;5015012;28;20026;-67
2022/02/17 02:06:52;;;;;;;3.30;1.63;;;-3.60;99.90;;;;;;5015003;28;20045;-66
2022/02/17 02:09:18;;;;;;;3.78;1.70;;;-3.60;99.90;;;;;;5014770;28;20022;-67
2022/02/17 02:11:47;;;;;;;2.35;1.60;;;-3.60;99.90;;;;;;5014119;28;20501;-67
2022/02/17 02:14:15;;;;;;;5.85;1.52;;;-3.60;99.90;;;;;;5014493;28;20046;-67
2022/02/17 02:16:41;;;;;;;3.33;1.50;;;-3.60;99.90;;;;;;5014993;28;20037;-67
2022/02/17 02:19:07;;;;;;;1.75;1.35;;;-3.60;99.90;;;;;;5014633;28;20034;-67
2022/02/17 02:21:33;;;;;;;3.17;1.65;;;-3.60;99.90;;;;;;5014609;28;20101;-67
2022/02/17 02:55:28;;;;;;;2.33;1.30;;;-3.50;99.90;;;;;;5013030;28;20153;-67
2022/02/17 02:57:54;;;;;;;3.38;1.40;;;-3.50;99.90;;;;;;5013785;28;20033;-67
2022/02/17 03:00:20;;;;;;;2.20;1.65;;;-3.50;99.90;;;;;;5013907;28;20022;-66
2022/02/17 03:02:46;;;;;;;1.73;1.30;;;-3.50;99.90;;;;;;5013610;28;20116;-67
2022/02/17 03:38:51;;;;;;;5.93;1.83;;;-3.60;99.90;;;;;;5264503;22;20291;-67
2022/02/17 03:41:17;;;;;;;1.80;1.38;;;-3.60;99.90;;;;;;5033001;28;20025;-67
2022/02/17 03:43:42;;;;;;;1.13;1.02;;;-3.60;99.90;;;;;;5032543;28;20029;-67
2022/02/17 03:46:08;;;;;;;3.13;1.95;;;-3.60;99.90;;;;;;5032744;28;20104;-67
2022/02/17 03:48:34;;;;;;;2.50;1.33;;;-3.60;99.90;;;;;;5032571;28;20052;-67
2022/02/17 03:50:59;;;;;;;3.00;1.48;;;-3.60;99.90;;;;;;5032717;28;20032;-66
2022/02/17 03:53:25;;;;;;;1.83;1.40;;;-3.60;99.90;;;;;;5032439;28;20480;-66
2022/02/17 03:55:51;;;;;;;3.20;1.80;;;-3.60;99.90;;;;;;5032985;28;20026;-66
2022/02/17 04:01:01;;;;;;;5.78;1.50;;;-3.60;99.90;;;;;;5032846;28;20108;-66
2022/02/17 04:03:27;;;;;;;3.28;1.38;;;-3.70;99.90;;;;;;5032643;28;20057;-66
2022/02/17 04:05:53;;;;;;;1.25;1.00;;;-3.70;99.90;;;;;;5032545;28;20045;-66
2022/02/17 04:08:18;;;;;;;7.20;1.48;;;-3.70;99.90;;;;;;5032154;28;20528;-66
2022/02/17 04:10:44;;;;;;;1.83;1.50;;;-3.70;99.90;;;;;;5032443;28;20052;-66
2022/02/17 04:13:10;;;;;;;2.22;1.50;;;-3.70;99.90;;;;;;5032392;28;20465;-67
2022/02/17 04:15:35;;;;;;;1.75;1.63;;;-3.70;99.90;;;;;;5032368;28;20024;-66
2022/02/17 04:18:01;;;;;;;2.85;1.73;;;-3.70;99.90;;;;;;5032240;28;20116;-66
2022/02/17 04:20:27;;;;;;;3.20;1.60;;;-3.70;99.90;;;;;;5032474;28;20418;-66
2022/02/17 04:22:53;;;;;;;1.80;1.58;;;-3.70;99.90;;;;;;5031920;28;20062;-66
2022/02/17 04:25:18;;;;;;;1.90;1.30;;;-3.70;99.90;;;;;;5032433;28;20457;-66
2022/02/17 04:27:44;;;;;;;4.47;1.42;;;-3.70;99.90;;;;;;5031976;28;20025;-67
2022/02/17 04:30:10;;;;;;;3.22;1.42;;;-3.70;99.90;;;;;;5032007;28;20025;-67
2022/02/17 04:32:36;;;;;;;2.92;1.50;;;-3.70;99.90;;;;;;5031857;28;20030;-66
2022/02/17 04:35:02;;;;;;;1.65;1.35;;;-3.70;99.90;;;;;;5031905;28;20112;-67
2022/02/17 04:37:28;;;;;;;3.00;1.33;;;-3.70;99.90;;;;;;5031709;28;20443;-67
2022/02/17 04:39:54;;;;;;;3.60;1.60;;;-3.70;99.90;;;;;;5032029;28;20036;-67
2022/02/17 04:42:20;;;;;;;4.90;1.60;;;-3.70;99.90;;;;;;5031924;28;20021;-67
2022/02/17 04:44:50;;;;;;;4.07;1.20;;;-3.70;99.90;;;;;;5031696;28;20105;-67
2022/02/17 04:47:17;;;;;;;2.55;1.50;;;-3.70;99.90;;;;;;5031886;28;20029;-67
2022/02/17 04:49:42;;;;;;;1.40;1.00;;;-3.70;99.90;;;;;;5031530;28;20037;-67
2022/02/17 04:52:09;;;;;;;1.90;1.45;;;-3.70;99.90;;;;;;5031670;28;20067;-67
2022/02/17 04:54:35;;;;;;;1.40;1.30;;;-3.70;99.90;;;;;;5031779;28;20033;-66
2022/02/17 04:57:01;;;;;;;1.92;1.40;;;-3.70;99.90;;;;;;5031632;28;20029;-66
2022/02/17 04:59:27;;;;;;;1.50;1.40;;;-3.70;99.90;;;;;;5031841;28;20025;-66
2022/02/17 05:01:53;;;;;;;4.07;1.90;;;-3.70;99.90;;;;;;5031579;28;20404;-66
2022/02/17 05:04:19;;;;;;;1.58;1.40;;;-3.70;99.90;;;;;;5031900;28;20033;-66
2022/02/17 05:06:44;;;;;;;1.52;1.17;;;-3.70;99.90;;;;;;5031739;28;20468;-66
2022/02/17 05:09:10;;;;;;;1.73;1.30;;;-3.70;99.90;;;;;;5031435;28;20030;-66
2022/02/17 05:11:36;;;;;;;1.35;1.10;;;-3.70;99.90;;;;;;5031582;28;20036;-66
2022/02/17 05:14:02;;;;;;;2.30;1.58;;;-3.70;99.90;;;;;;5031347;28;20043;-67
2022/02/17 05:16:27;;;;;;;1.98;1.25;;;-3.70;99.90;;;;;;5031815;28;20025;-66
2022/02/17 05:18:54;;;;;;;2.33;1.45;;;-3.70;99.90;;;;;;5031162;28;20461;-66
2022/02/17 05:21:19;;;;;;;3.13;1.70;;;-3.70;99.90;;;;;;5031657;28;20030;-66
2022/02/17 05:23:46;;;;;;;1.30;1.20;;;-3.70;99.90;;;;;;5031277;28;20104;-66
2022/02/17 05:26:12;;;;;;;2.58;1.48;;;-3.70;99.90;;;;;;5031389;28;20029;-67
2022/02/17 05:28:38;;;;;;;1.63;1.30;;;-3.70;99.90;;;;;;5031423;28;20366;-66
2022/02/17 05:31:04;;;;;;;3.95;1.58;;;-3.70;99.90;;;;;;5013729;28;20022;-66
2022/02/17 05:33:30;;;;;;;1.67;1.30;;;-3.70;99.90;;;;;;5031363;28;20108;-68
2022/02/17 05:35:56;;;;;;;2.55;1.63;;;-3.70;99.90;;;;;;5031133;28;20109;-67
2022/02/17 05:38:21;;;;;;;4.03;1.60;;;-3.70;99.90;;;;;;5030939;28;20057;-65
2022/02/17 05:40:47;;;;;;;2.08;1.60;;;-3.60;99.90;;;;;;5031274;28;20052;-68
2022/02/17 05:43:13;;;;;;;2.08;1.67;;;-2.90;99.90;;;;;;5031166;28;20380;-66
2022/02/17 05:45:39;;;;;;;2.63;1.38;;;-2.80;99.90;;;;;;5031442;28;20087;-65
2022/02/17 05:48:05;;;;;;;1.33;1.23;;;-3.10;99.90;;;;;;5034662;28;20468;-67
2022/02/17 05:50:31;;;;;;;1.77;1.33;;;-3.20;99.90;;;;;;5034269;28;20026;-65
2022/02/17 05:52:57;;;;;;;1.90;1.48;;;-3.40;99.90;;;;;;5026210;28;20096;-66
2022/02/17 05:55:22;;;;;;;2.00;1.63;;;-3.40;99.90;;;;;;5025208;28;20498;-66
2022/02/17 05:57:48;;;;;;;2.58;1.55;;;-3.40;99.90;;;;;;5014223;28;20496;-65
2022/02/17 06:00:15;;;;;;;3.10;1.60;;;-3.40;99.90;;;;;;5017803;28;20436;-66
2022/02/17 06:02:41;;;;;;;2.05;1.45;;;-3.40;99.90;;;;;;5027862;28;20041;-67
2022/02/17 06:05:08;;;;;;;2.45;1.80;;;-3.40;99.90;;;;;;5024929;28;20481;-65
2022/02/17 06:07:34;;;;;;;2.65;1.27;;;-3.50;99.90;;;;;;5033642;28;20022;-65
2022/02/17 06:09:59;;;;;;;2.78;1.63;;;-3.50;99.90;;;;;;5022792;28;20376;-65
2022/02/17 06:12:25;;;;;;;1.48;1.25;;;-3.50;99.90;;;;;;5022074;28;20025;-65
2022/02/17 06:14:51;;;;;;;2.63;1.42;;;-3.60;99.90;;;;;;5019505;28;20528;-65
2022/02/17 06:17:17;;;;;;;1.75;1.40;;;-3.60;99.90;;;;;;5033799;28;20021;-65
2022/02/17 06:19:43;;;;;;;2.38;1.35;;;-3.60;99.90;;;;;;5033897;28;20376;-65
2022/02/17 06:22:09;;;;;;;4.25;1.65;;;-3.60;99.90;;;;;;5033421;28;20041;-65
2022/02/17 06:24:35;;;;;;;1.30;1.20;;;-3.70;99.90;;;;;;5033993;28;20071;-65
2022/02/17 06:27:01;;;;;;;3.00;1.58;;;-3.70;99.90;;;;;;5033779;28;20026;-65
2022/02/17 06:29:26;;;;;;;4.10;1.60;;;-3.70;99.90;;;;;;5033925;28;20029;-65
2022/02/17 06:31:55;;;;;;;3.47;1.35;;;-3.70;99.90;;;;;;5034315;28;20455;-65
2022/02/17 06:34:21;;;;;;;1.55;1.40;;;-3.70;99.90;;;;;;5034232;28;20116;-65
2022/02/17 06:36:49;;;;;;;2.10;1.50;;;-3.70;99.90;;;;;;5034168;28;20025;-65
2022/02/17 06:39:16;;;;;;;1.92;1.40;;;-3.70;99.90;;;;;;5033535;28;20049;-65
2022/02/17 06:41:42;;;;;;;4.28;1.50;;;-3.70;99.90;;;;;;5034187;28;20032;-65
2022/02/17 06:44:08;;;;;;;1.40;1.30;;;-3.70;99.90;;;;;;5033886;28;20029;-65
2022/02/17 06:46:34;;;;;;;1.45;1.35;;;-3.70;99.90;;;;;;5033832;28;20464;-66
2022/02/17 06:49:01;;;;;;;1.25;1.15;;;-2.50;99.90;;;;;;5033476;28;20041;-66
2022/02/17 06:51:27;;;;;;;2.30;1.65;;;-2.30;99.90;;;;;;5016095;28;20423;-64
2022/02/17 06:53:53;;;;;;;2.08;1.50;;;0.80;99.90;;;;;;5033577;28;20040;-64
2022/02/17 06:56:20;;;;;;;1.33;1.13;;;0.10;99.90;;;;;;5029637;28;20017;-64
2022/02/17 06:58:46;;;;;;;1.67;1.33;;;-1.00;99.90;;;;;;5022499;28;20025;-67
2022/02/17 07:01:12;;;;;;;1.73;1.20;;;-1.70;99.90;;;;;;5022193;28;20022;-68
2022/02/17 07:03:39;;;;;;;2.08;1.60;;;-2.10;99.90;;;;;;5018967;28;20033;-66
2022/02/17 07:06:05;;;;;;;2.13;1.45;;;-2.20;99.90;;;;;;5022063;28;20052;-64
2022/02/17 07:08:31;;;;;;;2.90;1.70;;;-2.30;99.90;;;;;;5022090;28;20053;-65
2022/02/17 07:10:57;;;;;;;3.10;1.63;;;-2.50;99.90;;;;;;5021988;28;20025;-65
2022/02/17 07:13:27;;;;;;;2.55;1.92;;;-2.70;99.90;;;;;;5018349;28;20030;-64
2022/02/17 07:15:53;;;;;;;1.70;1.33;;;-2.80;99.90;;;;;;5020420;28;20030;-67
2022/02/17 07:18:20;;;;;;;1.95;1.48;;;-2.80;99.90;;;;;;5021651;28;20018;-66
2022/02/17 07:20:47;;;;;;;1.52;1.42;;;-2.70;99.90;;;;;;5001205;28;20022;-66
2022/02/17 07:23:14;;;;;;;1.92;1.25;;;-2.80;99.90;;;;;;5016859;28;20033;-66
2022/02/17 07:25:44;;;;;;;2.78;1.25;;;-3.00;99.90;;;;;;5015729;28;20010;-66
2022/02/17 07:28:10;;;;;;;4.32;1.25;;;-3.10;99.90;;;;;;5033147;28;20075;-68
2022/02/17 07:30:37;;;;;;;1.88;1.48;;;-2.80;99.90;;;;;;5033129;28;20029;-69
2022/02/17 07:33:04;;;;;;;2.55;1.40;;;-2.60;99.90;;;;;;5032947;28;20032;-68
2022/02/17 07:35:31;;;;;;;2.67;1.27;;;-2.70;99.90;;;;;;5032561;28;20053;-67
2022/02/17 07:37:57;;;;;;;1.48;1.35;;;-2.90;99.90;;;;;;5031986;28;20034;-69
2022/02/17 07:40:23;;;;;;;2.60;2.17;;;-2.90;99.90;;;;;;5032174;28;20021;-68
2022/02/17 07:42:49;;;;;;;1.20;1.10;;;-2.90;99.90;;;;;;5028495;28;20029;-67
2022/02/17 07:45:14;;;;;;;2.90;1.70;;;-1.30;99.90;;;;;;5032399;28;20388;-68
2022/02/17 07:47:45;;;;;;;3.25;1.83;;;-0.60;99.90;;;;;;5032076;28;20021;-67
2022/02/17 07:50:15;;;;;;;1.98;1.63;;;-1.20;99.90;;;;;;5032214;28;20020;-71
2022/02/17 07:52:41;;;;;;;;;;;-1.70;99.90;;;;;;5032220;28;20534;-74
2022/02/17 07:55:08;;;;;;;5.88;2.17;;;-2.00;99.90;;;;;;5031722;28;20008;-69
2022/02/17 07:57:35;;;;;;;1.60;1.30;;;-2.30;99.90;;;;;;5031733;28;20053;-69
2022/02/17 08:00:03;;;;;;;1.40;1.30;;;-2.50;99.90;;;;;;5031373;28;20036;-72
2022/02/17 08:02:29;;;;;;;1.38;1.17;;;-2.60;99.90;;;;;;5019586;28;20030;-72
2022/02/17 08:04:54;;;;;;;1.52;1.10;;;-2.60;99.90;;;;;;5032320;28;20056;-73
2022/02/17 08:07:20;;;;;;;1.35;1.25;;;-2.60;99.90;;;;;;5032275;28;20025;-73
2022/02/17 08:09:46;;;;;;;1.80;1.25;;;-2.60;99.90;;;;;;5031739;28;20108;-68
2022/02/17 08:12:11;;;;;;;2.38;1.10;;;-2.20;99.90;;;;;;5032336;28;20034;-68
2022/02/17 08:14:37;;;;;;;2.67;1.27;;;-2.30;99.90;;;;;;5032217;28;20033;-69
2022/02/17 08:17:03;;;;;;;1.45;1.35;;;-2.40;99.90;;;;;;5014483;28;20030;-69
2022/02/17 08:19:30;;;;;;;2.03;1.50;;;-2.40;99.90;;;;;;5011595;28;20116;-68
2022/02/17 08:21:56;;;;;;;3.75;1.50;;;-2.50;99.90;;;;;;5028780;28;20018;-68
2022/02/17 08:24:22;;;;;;;1.63;1.30;;;-2.50;99.90;;;;;;5031721;28;20029;-68
2022/02/17 08:26:48;;;;;;;3.40;1.60;;;-2.60;99.90;;;;;;5031475;28;20079;-68
2022/02/17 08:29:14;;;;;;;4.82;1.58;;;-2.60;99.90;;;;;;5031046;28;20026;-68
2022/02/17 08:31:39;;;;;;;2.58;1.30;;;-2.70;99.90;;;;;;5031974;28;20030;-68
2022/02/17 08:34:05;;;;;;;2.70;1.50;;;-2.70;99.90;;;;;;5031452;28;20138;-70
2022/02/17 08:36:32;;;;;;;2.78;1.48;;;-2.70;99.90;;;;;;5031869;28;20457;-69
2022/02/17 08:38:58;;;;;;;4.25;1.95;;;-2.80;99.90;;;;;;5031088;28;20049;-69
2022/02/17 08:41:24;;;;;;;1.33;1.20;;;-2.80;99.90;;;;;;5032137;28;20032;-68
2022/02/17 08:43:50;;;;;;;1.75;1.13;;;-2.40;99.90;;;;;;5031516;28;20444;-68
2022/02/17 08:46:16;;;;;;;3.25;1.55;;;-2.10;99.90;;;;;;5031779;28;20156;-67
2022/02/17 08:48:42;;;;;;;2.08;1.50;;;-1.10;99.90;;;;;;5013912;28;20048;-67
2022/02/17 08:51:09;;;;;;;2.58;1.30;;;-1.50;99.90;;;;;;5031547;28;20107;-67
2022/02/17 08:53:34;;;;;;;1.80;1.38;;;-1.90;99.90;;;;;;5031181;28;20030;-67
2022/02/17 08:56:00;;;;;;;3.65;1.75;;;-2.10;99.90;;;;;;5031415;28;20025;-67
2022/02/17 08:58:26;;;;;;;2.85;1.70;;;-2.30;99.90;;;;;;5031649;28;20041;-67
2022/02/17 09:00:52;;;;;;;4.13;2.25;;;-2.40;99.90;;;;;;5031504;28;20097;-67
2022/02/17 09:03:17;;;;;;;3.45;2.00;;;-2.50;99.90;;;;;;5031613;28;20044;-67
2022/02/17 09:05:43;;;;;;;4.25;2.58;;;-2.60;99.90;;;;;;5031574;28;20060;-67
2022/02/17 09:08:09;;;;;;;3.58;1.85;;;-2.60;99.90;;;;;;5031520;28;20109;-67
2022/02/17 09:10:36;;;;;;;2.72;1.60;;;-2.60;99.90;;;;;;5031501;28;20048;-67
2022/02/17 09:13:02;;;;;;;1.92;1.70;;;-2.60;99.90;;;;;;5013521;28;20042;-67
2022/02/17 09:15:29;;;;;;;4.93;1.67;;;-2.70;99.90;;;;;;5031406;28;20030;-67
2022/02/17 09:17:55;;;;;;;2.63;1.50;;;-2.70;99.90;;;;;;5031340;28;20060;-67
2022/02/17 09:20:21;;;;;;;1.25;1.15;;;-2.70;99.90;;;;;;5031548;28;20041;-67
2022/02/17 09:22:47;;;;;;;1.48;1.38;;;-2.70;99.90;;;;;;5035283;28;20025;-67
2022/02/17 09:25:13;;;;;;;1.50;1.40;;;-2.70;99.90;;;;;;5035197;28;20021;-67
2022/02/17 09:27:38;;;;;;;3.50;1.77;;;-2.80;99.90;;;;;;5035648;28;20101;-67
2022/02/17 09:30:05;;;;;;;1.90;1.55;;;-2.90;99.90;;;;;;5035128;28;20113;-67
2022/02/17 09:32:31;;;;;;;3.50;1.80;;;-2.90;99.90;;;;;;5035124;28;20025;-67
2022/02/17 09:34:57;;;;;;;2.58;1.63;;;-2.90;99.90;;;;;;5035242;28;20384;-67
2022/02/17 09:37:23;;;;;;;2.80;1.70;;;-2.90;99.90;;;;;;5034817;28;20021;-67
2022/02/17 09:39:49;;;;;;;2.15;1.40;;;-2.90;99.90;;;;;;5017160;28;20029;-66
2022/02/17 09:42:15;;;;;;;1.42;1.33;;;0.80;99.90;;;;;;5034955;28;20029;-69
2022/02/17 09:44:42;;;;;;;2.28;1.50;;;1.80;99.90;;;;;;5035032;28;20026;-69
2022/02/17 09:47:10;;;;;;;1.67;1.38;;;0.70;99.90;;;;;;5016917;28;20435;-67
2022/02/17 09:49:38;;;;;;;3.17;1.80;;;-0.10;99.90;;;;;;5034857;28;20022;-69
2022/02/17 09:52:04;;;;;;;2.53;1.48;;;-0.70;99.90;;;;;;5034256;28;20037;-68
2022/02/17 09:54:30;;;;;;;4.72;1.60;;;-1.10;99.90;;;;;;5034914;28;20073;-67
2022/02/17 09:56:56;;;;;;;1.27;1.17;;;-0.50;99.90;;;;;;5034936;28;20061;-68
2022/02/17 09:59:23;;;;;;;4.63;2.10;;;-0.90;99.90;;;;;;5034637;28;20325;-67
2022/02/17 10:02:03;;;;;;;2.15;1.55;;;-1.50;99.90;;;;;;5034930;28;20057;-67
2022/02/17 10:04:30;;;;;;;7.20;2.38;;;-1.70;99.90;;;;;;5034468;28;20381;-68
2022/02/17 10:06:59;;;;;;;3.30;1.88;;;-1.90;99.90;;;;;;5034407;28;20502;-67
2022/02/17 10:09:37;;;;;;;5.40;2.00;;;-2.00;99.90;;;;;;5034347;28;20029;-67
2022/02/17 10:12:04;;;;;;;5.32;2.50;;;-2.10;99.90;;;;;;5034406;28;20049;-67
2022/02/17 10:14:30;;;;;;;3.25;1.67;;;-2.10;99.90;;;;;;5034339;28;20572;-68
2022/02/17 10:17:03;;;;;;;2.47;1.40;;;-1.20;99.90;;;;;;5016189;28;20116;-68
2022/02/17 10:19:35;;;;;;;2.65;1.40;;;-1.00;99.90;;;;;;5034457;28;20040;-67
2022/02/17 10:22:11;;;;;;;1.73;1.35;;;-1.40;99.90;;;;;;5034425;28;20111;-67
2022/02/17 10:24:41;;;;;;;5.63;1.70;;;-1.70;99.90;;;;;;5033830;28;20055;-68
2022/02/17 10:27:25;;;;;;;1.50;1.30;;;-2.00;99.90;;;;;;5034027;28;20492;-67
2022/02/17 10:30:19;;;;;;;1.85;1.42;;;-2.10;99.90;;;;;;5034737;28;20120;-67
2022/02/17 10:33:00;;;;;;;2.47;1.30;;;-2.20;99.90;;;;;;5016114;28;20381;-68
2022/02/17 10:35:28;;;;;;;3.30;1.65;;;-2.30;99.90;;;;;;5034217;28;20035;-68
2022/02/17 10:37:54;;;;;;;2.53;1.50;;;-2.30;99.90;;;;;;5033650;28;20037;-67
2022/02/17 10:40:27;;;;;;;2.45;1.92;;;-2.30;99.90;;;;;;5016343;28;20040;-68
2022/02/17 10:43:00;;;;;;;1.77;1.40;;;-2.30;99.90;;;;;;5033643;28;20034;-68
2022/02/17 10:45:26;;;;;;;1.83;1.50;;;-2.30;99.90;;;;;;5016107;28;20026;-68
2022/02/17 10:47:52;;;;;;;3.83;1.52;;;-2.20;99.90;;;;;;5033676;28;20025;-68
2022/02/17 10:50:19;;;;;;;1.70;1.45;;;-2.20;99.90;;;;;;5033840;28;20036;-71
2022/02/17 10:52:45;;;;;;;1.70;1.60;;;-2.30;99.90;;;;;;5015657;28;20116;-70
2022/02/17 10:55:16;;;;;;;1.30;1.20;;;-2.30;99.90;;;;;;5015526;28;20468;-70
2022/02/17 10:57:43;;;;;;;1.70;1.60;;;-2.30;99.90;;;;;;5033930;28;20021;-70
2022/02/17 11:00:15;;;;;;;2.00;1.40;;;-2.40;99.90;;;;;;5032695;28;20178;-68
2022/02/17 11:02:41;;;;;;;2.03;1.55;;;-2.60;99.90;;;;;;5033552;28;20022;-69
2022/02/17 11:05:11;;;;;;;1.67;1.58;;;-2.60;99.90;;;;;;5033219;28;20392;-65
2022/02/17 11:07:39;;;;;;;2.28;1.73;;;-2.50;99.90;;;;;;5033408;28;20021;-65
2022/02/17 11:10:05;;;;;;;2.53;1.80;;;-2.60;99.90;;;;;;5033088;28;20041;-64
2022/02/17 11:12:33;;;;;;;2.90;1.65;;;-2.60;99.90;;;;;;5033159;28;20033;-64
2022/02/17 11:14:59;;;;;;;2.15;1.33;;;-2.70;99.90;;;;;;5033086;28;20120;-67
2022/02/17 11:17:25;;;;;;;5.63;2.15;;;-2.60;99.90;;;;;;5033234;28;20152;-67
2022/02/17 11:19:52;;;;;;;2.65;1.80;;;-2.60;99.90;;;;;;5033069;28;20025;-68
2022/02/17 11:22:18;;;;;;;2.67;1.38;;;-2.60;99.90;;;;;;5033315;28;20053;-69
2022/02/17 11:24:52;;;;;;;2.63;1.50;;;-2.60;99.90;;;;;;5032970;28;20032;-68
2022/02/17 11:27:19;;;;;;;1.73;1.42;;;-2.60;99.90;;;;;;5032813;28;20445;-68
2022/02/17 11:29:45;;;;;;;2.42;1.58;;;-2.50;99.90;;;;;;5032948;28;20031;-68
2022/02/17 11:32:14;;;;;;;3.08;1.35;;;-2.50;99.90;;;;;;5033136;28;20029;-69
2022/02/17 11:34:43;;;;;;;2.42;1.60;;;-2.60;99.90;;;;;;5032738;28;20112;-68
2022/02/17 11:37:29;;;;;;;1.85;1.52;;;-2.70;99.90;;;;;;5014736;28;20025;-68
2022/02/17 11:40:18;;;;;;;1.30;1.20;;;-2.70;99.90;;;;;;5032607;28;20042;-68
2022/02/17 11:42:47;;;;;;;2.05;1.40;;;-2.70;99.90;;;;;;5032874;28;20104;-69
2022/02/17 11:45:18;;;;;;;3.10;1.50;;;-2.70;99.90;;;;;;5031250;28;20096;-68
2022/02/17 11:48:05;;;;;;;1.45;1.35;;;-2.70;99.90;;;;;;5032753;28;20025;-68
2022/02/17 11:50:44;;;;;;;2.38;1.42;;;-2.60;99.90;;;;;;5014349;28;20108;-68
2022/02/17 11:53:24;;;;;;;2.17;1.70;;;-2.60;99.90;;;;;;5032334;28;20037;-68
2022/02/17 11:55:54;;;;;;;4.00;1.83;;;-2.50;99.90;;;;;;5032449;28;20435;-68
2022/02/17 11:58:41;;;;;;;2.78;1.60;;;-2.50;99.90;;;;;;5032687;28;20109;-69
2022/02/17 12:01:25;;;;;;;3.25;1.52;;;-2.40;99.90;;;;;;5031851;28;20025;-69
2022/02/17 12:04:22;;;;;;;1.98;1.58;;;-2.50;99.90;;;;;;5032412;28;20033;-68
2022/02/17 12:06:52;;;;;;;2.63;1.50;;;-2.40;99.90;;;;;;5032252;28;20023;-68
2022/02/17 12:09:35;;;;;;;3.80;1.90;;;-2.40;99.90;;;;;;5032123;28;20079;-68
2022/02/17 12:12:06;;;;;;;1.88;1.70;;;-2.30;99.90;;;;;;5032070;28;20370;-68
2022/02/17 12:14:32;;;;;;;3.60;1.92;;;-2.40;99.90;;;;;;5032005;28;20032;-69
2022/02/17 12:17:02;;;;;;;1.05;1.00;;;-2.30;99.90;;;;;;5032060;28;20021;-68
2022/02/17 12:19:33;;;;;;;1.60;1.48;;;-2.40;99.90;;;;;;5032128;28;20116;-69
2022/02/17 12:22:11;;;;;;;;;;;-2.40;99.90;;;;;;5032785;28;20084;-68
2022/02/17 12:24:42;;;;;;;1.60;1.50;;;-2.40;99.90;;;;;;5031876;28;19905;-68
2022/02/17 12:27:19;;;;;;;3.38;1.60;;;-2.40;99.90;;;;;;5032107;28;20537;-68
2022/02/17 12:29:45;;;;;;;3.15;1.63;;;-2.40;99.90;;;;;;5031927;28;20086;-69
2022/02/17 12:32:18;;;;;;;1.80;1.42;;;-2.50;99.90;;;;;;5031891;28;20022;-69
2022/02/17 12:34:45;;;;;;;1.65;1.30;;;-2.50;99.90;;;;;;5032058;28;20041;-68
2022/02/17 12:37:20;;;;;;;2.10;1.45;;;-2.50;99.90;;;;;;5031435;28;20040;-69
2022/02/17 12:39:51;;;;;;;2.88;1.30;;;-2.50;99.90;;;;;;5032066;28;20338;-68
2022/02/17 12:42:18;;;;;;;2.28;1.80;;;-2.50;99.90;;;;;;5031809;28;20026;-68
2022/02/17 12:44:46;;;;;;;2.03;1.70;;;-1.10;99.90;;;;;;5031752;28;20030;-68
2022/02/17 12:47:13;;;;;;;1.50;1.40;;;-1.20;99.90;;;;;;5031447;28;20078;-68
2022/02/17 12:49:39;;;;;;;3.05;1.48;;;-1.60;99.90;;;;;;5031506;28;20083;-69
2022/02/17 12:52:09;;;;;;;1.35;1.25;;;-1.90;99.90;;;;;;5031360;28;20025;-68
2022/02/17 12:54:36;;;;;;;3.33;1.65;;;-2.10;99.90;;;;;;5031999;28;20037;-68
2022/02/17 12:57:15;;;;;;;3.42;1.13;;;-2.20;99.90;;;;;;5038318;28;20025;-68
2022/02/17 12:59:42;;;;;;;5.32;2.15;;;-2.30;99.90;;;;;;5038102;28;20486;-68
2022/02/17 13:02:08;;;;;;;4.30;1.88;;;-2.30;99.90;;;;;;5038193;28;20029;-68
2022/02/17 13:04:34;;;;;;;2.28;1.65;;;-2.40;99.90;;;;;;5038391;28;20053;-68
2022/02/17 13:07:09;;;;;;;1.80;1.50;;;-2.40;99.90;;;;;;5038022;28;20029;-68
2022/02/17 13:09:35;;;;;;;2.22;1.40;;;-2.50;99.90;;;;;;5038062;28;20017;-68
2022/02/17 13:12:04;;;;;;;1.77;1.55;;;-2.30;99.90;;;;;;5020169;28;20021;-68
2022/02/17 13:14:50;;;;;;;2.47;1.42;;;-2.20;99.90;;;;;;5037935;28;20384;-68
2022/02/17 13:17:23;;;;;;;2.03;1.38;;;-1.50;99.90;;;;;;5037750;28;20017;-70
2022/02/17 13:19:49;;;;;;;2.78;1.58;;;-1.30;99.90;;;;;;5028192;28;20104;-68
2022/02/17 13:22:17;;;;;;;3.67;1.70;;;-1.60;99.90;;;;;;5038001;28;20032;-68
2022/02/17 13:24:51;;;;;;;2.70;1.63;;;-1.90;99.90;;;;;;5037926;28;20423;-68
2022/02/17 13:27:21;;;;;;;1.90;1.63;;;-2.10;99.90;;;;;;5038052;28;20029;-68
2022/02/17 13:30:05;;;;;;;2.35;1.50;;;-2.30;99.90;;;;;;5020927;28;20061;-67
2022/02/17 13:32:35;;;;;;;2.00;1.40;;;-2.40;99.90;;;;;;5037950;28;20116;-67
2022/02/17 13:35:01;;;;;;;;;;;-2.50;99.90;;;;;;5037908;28;20030;-68
2022/02/17 13:37:38;;;;;;;2.13;1.50;;;-2.50;99.90;;;;;;5028438;28;19932;-68
2022/02/17 13:40:05;;;;;;;3.03;1.65;;;-2.50;99.90;;;;;;5026576;28;20025;-68
2022/02/17 13:42:30;;;;;;;2.13;1.45;;;-2.60;99.90;;;;;;5012399;28;20083;-68
2022/02/17 13:44:57;;;;;;;3.60;1.63;;;-2.60;99.90;;;;;;5028392;28;20037;-69
2022/02/17 13:47:36;;;;;;;1.98;1.65;;;-2.60;99.90;;;;;;5028702;28;20389;-68
2022/02/17 13:50:07;;;;;;;1.83;1.60;;;-2.60;99.90;;;;;;5024523;28;20013;-68
2022/02/17 13:52:33;;;;;;;2.17;1.73;;;-2.70;99.90;;;;;;5028575;28;20022;-68
2022/02/17 13:55:00;;;;;;;2.30;1.67;;;-2.70;99.90;;;;;;5031868;28;20041;-68
2022/02/17 13:57:27;;;;;;;4.10;1.75;;;-2.80;99.90;;;;;;5026310;28;20037;-68
2022/02/17 14:00:03;;;;;;;1.95;1.55;;;-2.80;99.90;;;;;;5024103;28;20417;-68